Time;durP1;ratioP1;P1;durP2;ratioP2;P2;SDS_P1;SDS_P2;PMS_P1;PMS_P2;Temp;Humidity;BMP_temperature;BMP_pressure;BME280_temperature;BME280_humidity;BME280_pressure;Samples;Min_cycle;Max_cycle;Signal;HPM_P1;HPM_P2
2023/02/27 00:01:16;;;;;;;7.53;2.03;;;;;;;8.69;55.26;102752.75;5095499;28;20032;-49
2023/02/27 00:03:42;;;;;;;4.93;1.98;;;;;;;8.84;55.09;102747.88;5104587;28;20032;-49
2023/02/27 00:06:07;;;;;;;16.20;4.90;;;;;;;8.84;55.06;102754.03;5099608;28;20088;-49
2023/02/27 00:08:32;;;;;;;10.10;2.47;;;;;;;8.83;54.84;102756.84;5105208;28;20033;-50
2023/02/27 00:10:58;;;;;;;8.03;2.00;;;;;;;8.59;55.50;102750.03;5095402;28;20304;-47
2023/02/27 00:13:23;;;;;;;11.90;2.03;;;;;;;8.46;56.32;102744.91;5102702;28;20043;-48
2023/02/27 00:15:49;;;;;;;6.87;2.47;;;;;;;8.39;56.26;102755.25;5098313;28;20035;-52
2023/02/27 00:18:15;;;;;;;5.50;2.30;;;;;;;8.50;56.11;102765.03;5100770;28;20257;-50
2023/02/27 00:20:41;;;;;;;13.25;2.50;;;;;;;8.49;56.23;102754.44;5100633;28;20042;-49
2023/02/27 00:23:08;;;;;;;10.20;2.53;;;;;;;8.45;56.33;102756.56;5099648;28;20036;-46
2023/02/27 00:25:34;;;;;;;9.57;2.30;;;;;;;8.51;56.25;102755.19;5096920;28;20055;-50
2023/02/27 00:28:00;;;;;;;6.90;1.90;;;;;;;8.35;56.81;102756.50;5094153;28;20040;-49
2023/02/27 00:30:26;;;;;;;6.50;2.20;;;;;;;8.47;56.57;102752.75;5097462;28;20103;-51
2023/02/27 00:32:54;;;;;;;6.22;1.92;;;;;;;8.38;56.71;102752.72;5078806;28;20040;-51
2023/02/27 00:35:20;;;;;;;8.35;2.47;;;;;;;8.46;56.37;102744.91;5098571;28;20078;-49
2023/02/27 00:37:46;;;;;;;8.10;2.20;;;;;;;8.40;56.57;102740.94;5075219;28;20043;-51
2023/02/27 00:40:13;;;;;;;6.53;2.53;;;;;;;8.38;56.75;102747.38;5096778;28;20054;-49
2023/02/27 00:42:39;;;;;;;5.90;2.00;;;;;;;8.25;56.99;102748.47;5085318;28;20067;-51
2023/02/27 00:45:06;;;;;;;7.35;2.10;;;;;;;8.30;56.99;102748.91;5081617;28;20032;-51
2023/02/27 00:47:33;;;;;;;8.48;2.17;;;;;;;8.24;57.15;102740.59;5098485;28;20056;-51
2023/02/27 00:49:58;;;;;;;9.25;1.95;;;;;;;8.17;57.32;102734.94;5096694;28;20044;-47
2023/02/27 00:52:24;;;;;;;7.87;1.43;;;;;;;8.15;57.36;102737.75;5099761;28;20050;-51
2023/02/27 00:54:50;;;;;;;5.30;2.10;;;;;;;8.07;57.66;102736.72;5097069;28;20032;-47
2023/02/27 00:57:16;;;;;;;5.87;1.87;;;;;;;8.23;57.53;102736.25;5084020;28;20281;-48
2023/02/27 00:59:42;;;;;;;11.48;2.20;;;;;;;8.28;57.42;102729.53;5100893;28;20066;-49
2023/02/27 01:02:08;;;;;;;2.60;1.58;;;;;;;8.24;57.16;102732.59;5097197;28;20066;-51
2023/02/27 01:04:34;;;;;;;7.30;2.30;;;;;;;8.16;57.43;102735.91;5096172;28;20047;-51
2023/02/27 01:06:59;;;;;;;4.38;2.20;;;;;;;8.03;57.97;102731.66;5078476;28;20044;-51
2023/02/27 01:09:25;;;;;;;6.15;2.20;;;;;;;8.01;57.94;102735.44;5092320;28;20033;-49
2023/02/27 01:11:51;;;;;;;8.97;2.67;;;;;;;7.87;58.42;102739.28;5092972;28;20043;-49
2023/02/27 01:14:17;;;;;;;3.65;1.88;;;;;;;7.69;58.82;102741.69;5085827;28;20032;-50
2023/02/27 01:16:44;;;;;;;;;;;;;;;7.97;58.60;102747.31;5093392;28;20032;-49
2023/02/27 01:19:10;;;;;;;6.40;2.00;;;;;;;8.02;58.14;102737.13;5095777;28;19938;-49
2023/02/27 01:21:35;;;;;;;5.17;1.87;;;;;;;7.73;58.96;102743.97;5081950;28;20028;-49
2023/02/27 01:24:01;;;;;;;5.20;2.53;;;;;;;7.71;59.15;102745.88;5080704;28;20096;-51
2023/02/27 01:26:26;;;;;;;6.97;2.00;;;;;;;7.69;59.46;102739.03;5113292;28;20044;-50
2023/02/27 01:28:53;;;;;;;12.00;2.15;;;;;;;7.65;59.34;102740.25;5095706;28;20060;-49
2023/02/27 01:31:18;;;;;;;10.38;2.20;;;;;;;7.77;59.32;102739.22;5079873;28;20052;-53
2023/02/27 01:33:47;;;;;;;8.18;2.40;;;;;;;7.81;59.63;102740.63;5095813;28;20036;-49
2023/02/27 01:36:13;;;;;;;12.73;2.65;;;;;;;7.71;59.40;102743.22;5056407;28;20126;-50
2023/02/27 01:38:40;;;;;;;6.82;2.42;;;;;;;7.62;59.69;102746.69;5062085;28;20029;-50
2023/02/27 01:41:06;;;;;;;5.30;2.33;;;;;;;7.66;59.84;102741.94;5060591;28;20033;-51
2023/02/27 01:43:33;;;;;;;5.47;2.35;;;;;;;7.51;60.76;102734.25;5054422;28;20087;-53
2023/02/27 01:45:59;;;;;;;4.78;2.10;;;;;;;7.65;60.57;102732.28;5054905;28;20045;-50
2023/02/27 01:48:26;;;;;;;7.88;2.20;;;;;;;7.51;60.59;102731.59;5053128;28;20021;-51
2023/02/27 01:51:11;;;;;;;7.33;2.10;;;;;;;7.66;60.10;102732.13;5055314;28;20057;-47
2023/02/27 01:53:39;;;;;;;9.65;2.28;;;;;;;7.67;60.15;102736.47;5055325;28;20038;-50
2023/02/27 01:56:10;;;;;;;5.97;2.30;;;;;;;7.67;59.91;102732.97;5058703;28;20101;-54
2023/02/27 01:58:37;;;;;;;4.55;2.15;;;;;;;7.63;60.23;102723.56;5058339;28;20068;-49
2023/02/27 02:01:03;;;;;;;10.20;2.42;;;;;;;7.59;60.30;102729.13;5053057;28;20025;-48
2023/02/27 02:03:36;;;;;;;9.13;1.93;;;;;;;7.79;59.82;102728.44;5055313;28;20049;-52
2023/02/27 02:06:04;;;;;;;8.13;3.30;;;;;;;7.60;59.97;102730.81;5056976;28;20025;-51
2023/02/27 02:08:35;;;;;;;6.30;2.08;;;;;;;7.60;60.02;102727.31;5055407;28;20033;-51
2023/02/27 02:11:02;;;;;;;7.55;2.38;;;;;;;7.48;60.50;102729.19;5052785;28;20059;-50
2023/02/27 02:13:28;;;;;;;7.07;2.40;;;;;;;7.34;61.17;102721.50;5052444;28;20036;-51
2023/02/27 02:16:06;;;;;;;7.00;2.28;;;;;;;7.24;61.63;102727.59;5056212;28;20041;-50
2023/02/27 02:19:10;;;;;;;5.10;2.40;;;;;;;7.35;61.41;102725.84;5063081;28;20087;-49
2023/02/27 02:22:11;;;;;;;7.25;2.17;;;;;;;7.52;61.05;102733.28;5056742;28;20033;-50
2023/02/27 02:24:58;;;;;;;7.00;2.35;;;;;;;7.36;61.16;102731.06;5058256;28;20039;-47
2023/02/27 02:27:32;;;;;;;14.15;3.45;;;;;;;7.27;61.71;102735.34;5060404;28;20029;-47
2023/02/27 02:30:17;;;;;;;9.18;2.53;;;;;;;7.20;62.43;102723.50;5057019;28;20042;-52
2023/02/27 02:33:12;;;;;;;8.20;2.92;;;;;;;7.00;63.21;102725.97;5056429;28;20044;-49
2023/02/27 02:35:55;;;;;;;6.60;2.28;;;;;;;7.01;63.37;102725.00;5075002;28;20044;-47
2023/02/27 02:38:40;;;;;;;9.13;2.85;;;;;;;7.01;63.53;102713.50;5097431;28;20142;-49
2023/02/27 02:41:32;;;;;;;7.35;2.45;;;;;;;7.23;62.75;102712.59;5103557;28;20059;-50
2023/02/27 02:44:18;;;;;;;7.07;2.53;;;;;;;7.13;63.15;102715.19;5095359;28;20025;-51
2023/02/27 02:46:52;;;;;;;8.00;3.08;;;;;;;6.84;64.59;102725.53;5083882;28;20032;-51
2023/02/27 02:49:28;;;;;;;8.20;2.53;;;;;;;6.99;64.20;102728.75;5081177;28;20036;-50
2023/02/27 02:52:02;;;;;;;7.18;2.88;;;;;;;6.99;64.34;102731.41;5100628;28;20036;-50
2023/02/27 02:54:41;;;;;;;12.38;3.72;;;;;;;6.88;65.37;102732.28;5079393;28;20060;-47
2023/02/27 02:57:22;;;;;;;8.63;2.53;;;;;;;7.07;64.92;102736.13;5082234;28;20023;-49
2023/02/27 03:00:07;;;;;;;4.95;2.40;;;;;;;6.92;65.82;102740.88;5079520;28;20021;-47
2023/02/27 03:02:40;;;;;;;9.73;2.65;;;;;;;6.98;65.72;102743.88;5101343;28;20035;-49
2023/02/27 03:05:08;;;;;;;5.68;2.80;;;;;;;6.83;66.53;102740.66;5102666;28;20040;-49
2023/02/27 03:07:41;;;;;;;5.72;2.50;;;;;;;6.90;66.74;102738.31;5100097;28;20032;-49
2023/02/27 03:10:32;;;;;;;6.93;2.50;;;;;;;6.82;67.05;102741.63;5085866;28;20426;-48
2023/02/27 03:13:14;;;;;;;7.18;2.40;;;;;;;6.84;67.82;102736.16;5095910;28;20036;-47
2023/02/27 03:15:49;;;;;;;7.05;2.45;;;;;;;6.77;68.20;102745.63;5099497;28;20079;-52
2023/02/27 03:18:23;;;;;;;10.68;3.70;;;;;;;6.87;67.96;102743.91;5082042;28;20036;-55
2023/02/27 03:20:56;;;;;;;5.68;2.47;;;;;;;6.75;68.66;102732.44;5093718;28;20040;-47
2023/02/27 03:23:29;;;;;;;6.50;2.05;;;;;;;6.66;68.75;102743.81;5095054;28;20048;-49
2023/02/27 03:25:55;;;;;;;4.13;2.22;;;;;;;6.77;69.36;102745.63;5077457;28;20025;-46
2023/02/27 03:28:27;;;;;;;6.03;2.75;;;;;;;6.84;68.88;102752.13;5081738;28;20029;-49
2023/02/27 03:31:12;;;;;;;9.10;2.55;;;;;;;6.83;69.17;102745.97;5079506;28;20031;-51
2023/02/27 03:33:47;;;;;;;5.13;2.75;;;;;;;6.77;69.21;102740.31;5099827;28;20050;-52
2023/02/27 03:36:36;;;;;;;7.90;2.30;;;;;;;6.71;69.90;102750.47;5069629;28;20049;-47
2023/02/27 03:39:11;;;;;;;13.35;3.08;;;;;;;6.86;69.45;102743.06;5056586;28;20041;-48
2023/02/27 03:41:46;;;;;;;5.93;2.35;;;;;;;6.94;69.47;102744.25;5064007;28;20128;-51
2023/02/27 03:44:59;;;;;;;6.40;2.78;;;;;;;6.92;69.64;102739.06;5078375;28;20032;-49
2023/02/27 03:47:26;;;;;;;9.13;2.38;;;;;;;6.96;69.47;102747.63;5054988;28;20033;-51
2023/02/27 03:49:52;;;;;;;10.18;2.50;;;;;;;7.06;69.12;102745.94;5066138;28;20033;-52
2023/02/27 03:52:19;;;;;;;16.90;3.20;;;;;;;6.99;69.30;102740.25;5066800;28;20037;-48
2023/02/27 03:54:55;;;;;;;5.65;2.55;;;;;;;7.08;69.11;102743.13;5064300;28;20025;-50
2023/02/27 03:57:21;;;;;;;9.40;2.90;;;;;;;7.15;68.67;102731.00;5063277;28;20056;-52
2023/02/27 03:59:47;;;;;;;9.77;2.47;;;;;;;7.07;68.78;102738.78;5065064;28;20036;-52
2023/02/27 04:02:14;;;;;;;6.60;1.97;;;;;;;7.01;69.16;102740.13;5067900;28;20033;-48
2023/02/27 04:04:40;;;;;;;;;;;;;;;6.92;69.65;102747.06;5065208;28;20270;-49
2023/02/27 04:08:03;;;;;;;6.80;2.38;;;;;;;6.96;69.66;102752.94;5059694;28;19920;-49
2023/02/27 04:10:31;;;;;;;;;;;;;;;6.92;69.82;102744.41;5060166;28;20041;-47
2023/02/27 04:13:15;;;;;;;5.07;2.38;;;;;;;7.01;69.26;102753.41;5059293;28;19920;-47
2023/02/27 04:16:14;;;;;;;10.23;2.22;;;;;;;6.85;69.76;102759.13;5060702;28;20029;-49
2023/02/27 04:18:55;;;;;;;9.18;2.90;;;;;;;6.70;70.53;102762.06;5049364;28;20046;-51
2023/02/27 04:21:32;;;;;;;9.80;2.42;;;;;;;6.93;69.93;102761.19;5063990;28;20039;-50
2023/02/27 04:24:04;;;;;;;10.07;2.72;;;;;;;6.92;69.69;102771.00;5067995;28;20029;-48
2023/02/27 04:26:41;;;;;;;4.40;2.10;;;;;;;6.97;70.25;102773.25;5057592;28;20029;-53
2023/02/27 04:29:22;;;;;;;7.28;1.98;;;;;;;6.89;70.38;102772.06;5061954;28;20029;-50
2023/02/27 04:32:05;;;;;;;5.07;2.33;;;;;;;6.83;70.80;102777.91;5067795;28;20036;-49
2023/02/27 04:34:37;;;;;;;8.75;2.10;;;;;;;6.86;71.52;102776.78;5065604;28;20127;-50
2023/02/27 04:37:30;;;;;;;5.53;1.80;;;;;;;6.78;71.70;102771.25;5100267;28;20046;-53
2023/02/27 04:40:06;;;;;;;9.93;3.03;;;;;;;7.02;70.83;102773.72;5096758;28;20032;-51
2023/02/27 04:42:34;;;;;;;6.13;2.55;;;;;;;6.87;71.29;102782.00;5096287;28;20023;-49
2023/02/27 04:45:03;;;;;;;12.13;2.70;;;;;;;6.83;72.16;102782.34;5102642;28;20034;-51
2023/02/27 04:47:33;;;;;;;4.00;2.33;;;;;;;6.82;71.64;102788.63;5099705;28;20032;-52
2023/02/27 04:50:23;;;;;;;7.43;2.20;;;;;;;6.83;71.64;102790.34;5097567;28;20055;-50
2023/02/27 04:52:57;;;;;;;9.60;3.13;;;;;;;6.74;72.38;102789.25;5078990;28;20048;-50
2023/02/27 04:55:27;;;;;;;10.50;4.03;;;;;;;6.82;72.34;102794.81;5099251;28;20058;-50
2023/02/27 04:57:58;;;;;;;7.07;2.90;;;;;;;6.81;72.29;102798.44;5102404;28;20032;-46
2023/02/27 05:00:27;;;;;;;9.35;2.92;;;;;;;6.80;72.39;102796.72;5095536;28;20032;-49
2023/02/27 05:03:02;;;;;;;14.73;2.78;;;;;;;6.80;72.29;102802.03;5095178;28;20059;-51
2023/02/27 05:05:32;;;;;;;12.05;2.50;;;;;;;6.73;72.78;102801.72;5095814;28;20036;-51
2023/02/27 05:08:09;;;;;;;7.97;2.42;;;;;;;6.78;72.74;102795.19;5102117;28;20028;-51
2023/02/27 05:11:01;;;;;;;14.52;2.78;;;;;;;6.82;72.02;102807.25;5100221;28;20073;-50
2023/02/27 05:13:37;;;;;;;6.85;2.60;;;;;;;6.74;72.90;102806.06;5104841;28;20082;-46
2023/02/27 05:16:18;;;;;;;11.77;3.70;;;;;;;6.69;73.13;102802.94;5093623;28;20038;-49
2023/02/27 05:18:45;;;;;;;7.30;2.92;;;;;;;6.78;72.77;102797.84;5095954;28;20088;-52
2023/02/27 05:21:30;;;;;;;7.25;2.33;;;;;;;6.84;73.16;102807.97;5100490;28;20119;-51
2023/02/27 05:24:09;;;;;;;19.90;4.00;;;;;;;6.77;73.11;102804.97;5097815;28;20119;-49
2023/02/27 05:27:04;;;;;;;10.95;2.90;;;;;;;6.63;74.05;102806.06;5095418;28;20040;-53
2023/02/27 05:29:39;;;;;;;7.60;2.67;;;;;;;6.69;74.06;102805.59;5093420;28;20033;-50
2023/02/27 05:32:40;;;;;;;10.88;3.97;;;;;;;6.81;73.80;102802.91;5093875;28;20028;-49
2023/02/27 05:35:25;;;;;;;9.18;2.42;;;;;;;6.72;74.19;102812.47;5051875;28;20104;-49
2023/02/27 05:38:16;;;;;;;12.40;4.22;;;;;;;6.67;75.21;102807.50;5079793;28;20028;-49
2023/02/27 05:40:48;;;;;;;11.38;3.10;;;;;;;6.68;74.36;102811.84;5087921;28;20079;-46
2023/02/27 05:43:22;;;;;;;13.95;4.15;;;;;;;6.67;75.00;102806.66;5093149;28;20456;-51
2023/02/27 05:45:52;;;;;;;8.18;3.47;;;;;;;6.67;75.08;102814.63;5096774;28;20080;-49
2023/02/27 05:48:26;;;;;;;11.65;4.05;;;;;;;6.41;76.35;102817.53;5100748;28;20059;-48
2023/02/27 05:50:53;;;;;;;8.80;3.25;;;;;;;6.39;77.42;102809.66;5099659;28;20040;-50
2023/02/27 05:53:21;;;;;;;8.73;2.92;;;;;;;6.56;76.44;102804.84;5109035;28;20039;-50
2023/02/27 05:55:52;;;;;;;8.50;3.22;;;;;;;6.50;76.50;102811.47;5096727;28;20036;-47
2023/02/27 05:58:29;;;;;;;5.88;2.75;;;;;;;6.40;76.69;102808.69;5099712;28;20024;-54
2023/02/27 06:01:06;;;;;;;7.40;2.80;;;;;;;6.44;76.99;102815.47;5097360;28;20029;-48
2023/02/27 06:03:35;;;;;;;7.55;3.25;;;;;;;6.55;76.73;102821.78;5099849;28;20060;-49
2023/02/27 06:06:05;;;;;;;8.02;2.95;;;;;;;6.53;76.75;102823.69;5099275;28;20089;-49
2023/02/27 06:08:30;;;;;;;6.57;3.08;;;;;;;6.42;76.70;102817.38;5103102;28;20114;-51
2023/02/27 06:10:56;;;;;;;12.32;3.08;;;;;;;6.50;77.11;102829.25;5097902;28;20057;-49
2023/02/27 06:13:23;;;;;;;10.00;3.27;;;;;;;6.49;76.78;102828.41;5103547;28;20044;-48
2023/02/27 06:15:49;;;;;;;9.25;2.90;;;;;;;6.63;76.29;102829.16;5104059;28;20340;-50
2023/02/27 06:18:16;;;;;;;10.85;2.60;;;;;;;6.62;76.48;102822.13;5109674;28;20037;-50
2023/02/27 06:20:43;;;;;;;8.67;3.43;;;;;;;6.63;76.20;102829.16;5098324;28;20044;-48
2023/02/27 06:23:09;;;;;;;8.52;2.50;;;;;;;6.53;76.64;102829.00;5101742;28;20427;-52
2023/02/27 06:25:34;;;;;;;8.25;2.83;;;;;;;6.48;76.61;102832.03;5102282;28;20032;-49
2023/02/27 06:28:00;;;;;;;4.97;2.17;;;;;;;6.44;76.63;102836.72;5096356;28;20059;-46
2023/02/27 06:30:26;;;;;;;11.38;2.75;;;;;;;6.56;76.05;102842.91;5099995;28;20036;-50
2023/02/27 06:32:51;;;;;;;6.60;2.40;;;;;;;6.52;76.39;102843.28;5097080;28;20036;-53
2023/02/27 06:35:16;;;;;;;7.73;3.40;;;;;;;6.54;76.31;102846.66;5100030;28;20067;-51
2023/02/27 06:37:43;;;;;;;16.58;3.00;;;;;;;6.50;76.28;102851.34;5084232;28;20032;-52
2023/02/27 06:40:10;;;;;;;12.95;3.65;;;;;;;6.64;76.34;102858.25;5103862;28;20035;-49
2023/02/27 06:42:43;;;;;;;10.25;3.65;;;;;;;6.47;77.01;102856.09;5098822;28;20021;-49
2023/02/27 06:45:10;;;;;;;12.55;3.25;;;;;;;6.45;77.62;102859.69;5098573;28;20032;-54
2023/02/27 06:47:37;;;;;;;9.43;2.65;;;;;;;6.55;77.83;102864.31;5085264;28;20073;-47
2023/02/27 06:50:04;;;;;;;14.18;3.97;;;;;;;6.61;77.04;102866.47;5098660;28;20082;-51
2023/02/27 06:52:30;;;;;;;10.23;2.97;;;;;;;6.57;77.41;102868.56;5099597;28;20044;-52
2023/02/27 06:54:56;;;;;;;10.02;3.28;;;;;;;6.50;78.39;102867.31;5104661;28;20040;-51
2023/02/27 06:57:21;;;;;;;5.93;3.20;;;;;;;6.64;77.89;102874.22;5101834;28;20028;-48
2023/02/27 06:59:46;;;;;;;10.83;4.13;;;;;;;6.70;77.23;102884.41;5099453;28;20079;-50
2023/02/27 07:02:13;;;;;;;8.03;3.17;;;;;;;6.77;76.72;102883.91;5107283;28;20054;-48
2023/02/27 07:04:39;;;;;;;10.65;2.83;;;;;;;6.88;76.40;102891.88;5096492;28;20059;-51
2023/02/27 07:07:05;;;;;;;4.90;2.42;;;;;;;6.77;76.59;102889.22;5100973;28;20036;-52
2023/02/27 07:09:31;;;;;;;8.02;3.15;;;;;;;6.75;76.88;102897.31;5101268;28;20055;-51
2023/02/27 07:11:57;;;;;;;11.88;4.20;;;;;;;6.91;75.97;102899.63;5099579;28;20020;-50
2023/02/27 07:14:24;;;;;;;12.53;4.00;;;;;;;6.90;76.06;102903.25;5102964;28;20118;-55
2023/02/27 07:16:53;;;;;;;12.38;3.40;;;;;;;6.88;76.71;102902.53;5098338;28;20062;-52
2023/02/27 07:19:23;;;;;;;7.05;3.03;;;;;;;6.92;76.63;102898.69;5097135;28;20032;-49
2023/02/27 07:21:49;;;;;;;16.67;3.45;;;;;;;6.99;76.33;102899.88;5101085;28;20054;-53
2023/02/27 07:24:15;;;;;;;13.40;3.00;;;;;;;7.10;75.70;102900.81;5099237;28;20100;-53
2023/02/27 07:26:41;;;;;;;7.60;3.25;;;;;;;7.12;75.85;102904.22;5102835;28;20032;-47
2023/02/27 07:29:08;;;;;;;11.60;3.30;;;;;;;7.17;75.69;102900.22;5097098;28;20033;-48
2023/02/27 07:31:34;;;;;;;;;;;;;;;7.26;74.95;102906.63;5101873;28;20032;-50
2023/02/27 07:34:00;;;;;;;10.68;2.90;;;;;;;7.25;75.04;102906.75;5103773;28;19912;-52
2023/02/27 07:36:25;;;;;;;7.00;2.27;;;;;;;7.27;74.95;102897.69;5099247;28;20055;-49
2023/02/27 07:38:51;;;;;;;10.10;3.27;;;;;;;7.31;74.83;102903.63;5098693;28;20046;-52
2023/02/27 07:41:17;;;;;;;6.47;2.33;;;;;;;7.32;74.81;102906.13;5097183;28;20033;-53
2023/02/27 07:43:42;;;;;;;23.10;4.53;;;;;;;7.53;74.72;102909.88;5097366;28;20036;-50
2023/02/27 07:46:08;;;;;;;14.20;3.67;;;;;;;7.55;74.42;102906.09;5100923;28;20028;-51
2023/02/27 07:48:34;;;;;;;9.57;3.47;;;;;;;7.69;73.69;102909.47;5097894;28;20037;-49
2023/02/27 07:50:59;;;;;;;10.30;2.23;;;;;;;7.78;73.79;102919.34;5100431;28;20046;-50
2023/02/27 07:53:25;;;;;;;7.43;1.90;;;;;;;7.82;73.19;102918.13;5098177;28;20064;-52
2023/02/27 07:55:51;;;;;;;10.82;2.75;;;;;;;8.02;72.13;102916.50;5100719;28;20028;-52
2023/02/27 07:58:17;;;;;;;9.55;3.22;;;;;;;8.25;71.98;102911.06;5100797;28;20054;-49
2023/02/27 08:00:43;;;;;;;10.20;2.80;;;;;;;8.14;71.54;102917.31;5101245;28;20059;-50
2023/02/27 08:03:09;;;;;;;18.53;3.37;;;;;;;8.35;71.09;102911.16;5097946;28;20284;-49
2023/02/27 08:05:34;;;;;;;7.57;3.03;;;;;;;8.30;71.43;102911.53;5082786;28;20117;-53
2023/02/27 08:08:02;;;;;;;13.48;3.65;;;;;;;8.44;71.02;102912.19;5084942;28;20043;-52
2023/02/27 08:10:27;;;;;;;13.05;3.33;;;;;;;8.52;70.83;102916.88;5099282;28;20036;-50
2023/02/27 08:12:53;;;;;;;14.07;3.80;;;;;;;8.45;70.38;102912.03;5096290;28;20084;-50
2023/02/27 08:15:18;;;;;;;14.00;2.73;;;;;;;8.59;69.95;102921.56;5099148;28;20183;-51
2023/02/27 08:17:45;;;;;;;5.97;2.30;;;;;;;8.53;69.69;102926.56;5097985;28;20296;-50
2023/02/27 08:20:12;;;;;;;12.30;2.92;;;;;;;8.65;69.93;102927.34;5100012;28;20032;-50
2023/02/27 08:22:37;;;;;;;9.90;2.50;;;;;;;8.73;69.72;102925.72;5097186;28;20043;-53
2023/02/27 08:25:06;;;;;;;11.70;2.60;;;;;;;8.93;69.21;102930.34;5103447;28;20101;-48
2023/02/27 08:27:32;;;;;;;10.70;3.00;;;;;;;9.03;69.13;102929.41;5099058;28;20084;-50
2023/02/27 08:29:59;;;;;;;8.90;2.80;;;;;;;9.37;67.87;102936.28;5100505;28;20062;-47
2023/02/27 08:32:24;;;;;;;8.88;2.78;;;;;;;9.56;67.11;102938.16;5099235;28;20029;-49
2023/02/27 08:34:49;;;;;;;6.40;2.40;;;;;;;9.64;67.10;102941.94;5102501;28;20111;-51
2023/02/27 08:37:15;;;;;;;7.18;2.30;;;;;;;9.63;66.68;102940.25;5095334;28;20050;-47
2023/02/27 08:39:40;;;;;;;5.80;3.30;;;;;;;9.89;66.47;102951.28;5099654;28;20032;-47
2023/02/27 08:42:06;;;;;;;9.20;3.07;;;;;;;10.10;66.11;102950.31;5098822;28;20037;-50
2023/02/27 08:44:32;;;;;;;7.13;2.15;;;;;;;10.57;64.74;102949.59;5097542;28;20058;-51
2023/02/27 08:46:58;;;;;;;5.13;2.08;;;;;;;10.92;63.37;102956.16;5100644;28;20071;-50
2023/02/27 08:49:24;;;;;;;7.57;2.53;;;;;;;11.35;62.04;102963.75;5085646;28;20025;-54
2023/02/27 08:51:51;;;;;;;6.35;2.10;;;;;;;11.95;60.38;102960.56;5100550;28;20024;-50
2023/02/27 08:54:17;;;;;;;9.10;2.33;;;;;;;12.50;58.95;102964.06;5097127;28;20032;-48
2023/02/27 08:56:43;;;;;;;7.97;2.08;;;;;;;13.00;56.82;102959.00;5104363;28;20085;-50
2023/02/27 08:59:09;;;;;;;7.70;2.00;;;;;;;13.34;55.62;102967.06;5101670;28;20039;-52
2023/02/27 09:01:34;;;;;;;4.43;1.80;;;;;;;13.48;54.42;102962.13;5094922;28;20036;-51
2023/02/27 09:04:04;;;;;;;7.87;2.60;;;;;;;14.54;51.91;102964.28;5099979;28;20032;-48
2023/02/27 09:06:31;;;;;;;3.53;1.40;;;;;;;14.85;50.82;102968.97;5096111;28;20276;-48
2023/02/27 09:08:57;;;;;;;3.65;1.95;;;;;;;15.46;49.04;102979.22;5095675;28;20058;-53
2023/02/27 09:11:23;;;;;;;7.07;2.50;;;;;;;16.14;47.56;102982.16;5098412;28;20095;-49
2023/02/27 09:13:50;;;;;;;4.97;1.85;;;;;;;16.68;45.87;102987.63;5103992;28;20052;-50
2023/02/27 09:16:16;;;;;;;;;;;;;;;17.07;44.27;102994.69;5098311;28;20052;-49
2023/02/27 09:18:41;;;;;;;8.20;1.83;;;;;;;17.45;43.52;102991.88;5098881;28;19928;-54
2023/02/27 09:21:06;;;;;;;5.10;1.83;;;;;;;17.42;42.40;102986.00;5100318;28;20028;-49
2023/02/27 09:23:32;;;;;;;7.23;1.77;;;;;;;17.45;42.53;102991.03;5104067;28;20034;-48
2023/02/27 09:25:57;;;;;;;6.53;2.00;;;;;;;18.06;41.23;102987.16;5099159;28;20084;-48
2023/02/27 09:28:23;;;;;;;7.72;1.90;;;;;;;18.85;40.26;102997.97;5102220;28;20111;-53
2023/02/27 09:30:48;;;;;;;6.03;1.97;;;;;;;18.85;39.73;102996.13;5082660;28;20044;-47
2023/02/27 09:33:14;;;;;;;5.95;2.35;;;;;;;19.32;39.15;103001.00;5102081;28;20038;-48
2023/02/27 09:35:40;;;;;;;10.45;2.38;;;;;;;19.50;38.34;102997.72;5101768;28;20063;-48
2023/02/27 09:38:06;;;;;;;3.53;1.75;;;;;;;19.54;37.73;102998.97;5107604;28;20047;-51
2023/02/27 09:40:37;;;;;;;4.63;1.83;;;;;;;19.83;36.66;102996.97;5100716;28;20036;-49
2023/02/27 09:43:20;;;;;;;10.80;2.33;;;;;;;19.89;37.10;102998.03;5103655;28;20099;-49
2023/02/27 09:45:53;;;;;;;7.03;1.90;;;;;;;20.25;36.35;102994.16;5098373;28;20024;-50
2023/02/27 09:48:28;;;;;;;5.77;1.80;;;;;;;20.42;36.19;102999.19;5100822;28;20036;-50
2023/02/27 09:50:56;;;;;;;3.63;1.53;;;;;;;20.89;35.46;103007.31;5098246;28;20100;-52
2023/02/27 09:53:25;;;;;;;3.30;1.47;;;;;;;20.90;35.26;103006.25;5098919;28;20033;-51
2023/02/27 09:55:53;;;;;;;8.53;1.63;;;;;;;21.20;34.79;103000.28;5098548;28;20055;-51
2023/02/27 09:58:40;;;;;;;6.20;2.00;;;;;;;21.55;33.97;102997.22;5099617;28;20092;-52
2023/02/27 10:01:09;;;;;;;;;;;;;;;22.13;33.39;102995.41;5094767;28;20040;-49
2023/02/27 10:03:37;;;;;;;6.63;1.50;;;;;;;22.20;32.92;102995.38;5079708;28;19917;-49
2023/02/27 10:06:24;;;;;;;8.97;1.80;;;;;;;21.91;33.13;102994.97;5099677;28;20029;-49
2023/02/27 10:08:57;;;;;;;;;;;;;;;22.92;33.36;102988.66;5102498;28;20058;-48
2023/02/27 10:11:55;;;;;;;6.80;1.73;;;;;;;23.29;31.59;102996.03;5101604;28;19917;-52
2023/02/27 10:14:37;;;;;;;;;;;;;;;22.67;31.53;102992.28;5065752;28;20058;-47
2023/02/27 10:17:11;;;;;;;4.93;1.70;;;;;;;23.29;31.53;103001.47;5100431;28;19919;-50
2023/02/27 10:19:37;;;;;;;8.30;1.77;;;;;;;23.30;31.38;102994.97;5098198;28;20025;-47
2023/02/27 10:22:09;;;;;;;5.60;1.70;;;;;;;23.82;30.80;102991.72;5100280;28;20039;-51
2023/02/27 10:24:43;;;;;;;3.77;1.63;;;;;;;24.26;30.22;102998.84;5100301;28;20032;-50
2023/02/27 10:27:16;;;;;;;4.60;1.27;;;;;;;24.21;30.71;102994.09;5098017;28;20053;-50
2023/02/27 10:29:42;;;;;;;11.07;1.83;;;;;;;24.87;28.92;102996.72;5081737;28;20104;-52
2023/02/27 10:32:31;;;;;;;4.60;1.45;;;;;;;24.90;28.85;102995.41;5105318;28;20028;-52
2023/02/27 10:35:04;;;;;;;6.00;1.17;;;;;;;25.19;28.47;102998.22;5103686;28;20127;-47
2023/02/27 10:37:30;;;;;;;4.10;1.80;;;;;;;25.85;28.19;102986.88;5101572;28;20028;-52
2023/02/27 10:40:00;;;;;;;9.03;2.47;;;;;;;26.36;27.61;102999.78;5103992;28;20028;-52
2023/02/27 10:42:31;;;;;;;9.30;2.13;;;;;;;25.71;28.48;102996.47;5101600;28;20040;-51
2023/02/27 10:44:56;;;;;;;13.63;2.47;;;;;;;25.95;27.50;102993.59;5104141;28;20028;-51
2023/02/27 10:47:23;;;;;;;;;;;;;;;26.24;27.04;103002.63;5100854;28;20047;-49
2023/02/27 10:49:50;;;;;;;5.30;1.92;;;;;;;26.82;26.59;102987.81;5100402;28;19971;-52
2023/02/27 10:52:16;;;;;;;5.20;1.80;;;;;;;27.15;26.30;102994.28;5099844;28;20029;-49
2023/02/27 10:54:44;;;;;;;5.77;2.03;;;;;;;26.82;26.45;102982.31;5101060;28;20036;-51
2023/02/27 10:57:41;;;;;;;4.37;1.57;;;;;;;27.00;26.07;102972.97;5098969;28;20035;-51
2023/02/27 11:00:24;;;;;;;5.50;1.37;;;;;;;27.90;27.93;102974.44;5101496;28;20340;-51
2023/02/27 11:02:51;;;;;;;4.67;1.60;;;;;;;26.15;27.85;102977.50;5099059;28;20344;-49
2023/02/27 11:05:29;;;;;;;4.70;1.47;;;;;;;26.87;27.02;102963.19;5099701;28;20025;-55
2023/02/27 11:08:09;;;;;;;5.63;1.53;;;;;;;25.76;26.07;102966.41;5098666;28;20041;-54
2023/02/27 11:10:34;;;;;;;6.90;1.20;;;;;;;24.08;27.50;102945.94;5107361;28;20028;-52
2023/02/27 11:13:03;;;;;;;8.00;1.50;;;;;;;23.05;28.12;102961.19;5102510;28;20112;-51
2023/02/27 11:15:32;;;;;;;5.17;1.40;;;;;;;21.86;30.43;102943.03;5099818;28;20024;-53
2023/02/27 11:18:28;;;;;;;5.03;1.80;;;;;;;20.39;30.11;102940.66;5101177;28;20047;-51
2023/02/27 11:21:11;;;;;;;4.27;1.30;;;;;;;19.97;31.35;102937.31;5093391;28;20044;-52
2023/02/27 11:23:37;;;;;;;4.93;1.43;;;;;;;20.36;29.73;102935.63;5098137;28;20048;-51
2023/02/27 11:26:16;;;;;;;2.50;0.90;;;;;;;20.16;29.27;102936.47;5099354;28;20051;-50
2023/02/27 11:28:41;;;;;;;7.63;1.77;;;;;;;20.46;31.02;102924.34;5105139;28;20028;-48
2023/02/27 11:31:21;;;;;;;4.80;1.10;;;;;;;20.52;29.96;102928.06;5103137;28;20032;-50
2023/02/27 11:33:52;;;;;;;3.23;1.10;;;;;;;19.99;30.43;102921.63;5096104;28;20067;-54
2023/02/27 11:36:17;;;;;;;5.37;1.20;;;;;;;19.95;30.74;102917.66;5099919;28;20043;-50
2023/02/27 11:38:53;;;;;;;2.92;1.20;;;;;;;19.81;29.87;102916.78;5098609;28;20264;-51
2023/02/27 11:41:20;;;;;;;8.13;2.20;;;;;;;19.70;30.17;102907.38;5098992;28;20043;-51
2023/02/27 11:43:49;;;;;;;3.40;1.30;;;;;;;19.49;30.60;102903.78;5101969;28;20263;-51
2023/02/27 11:46:24;;;;;;;5.50;1.93;;;;;;;19.31;31.48;102899.78;5099007;28;20269;-48
2023/02/27 11:49:18;;;;;;;5.53;1.20;;;;;;;19.27;33.77;102895.81;5103956;28;20312;-50
2023/02/27 11:51:57;;;;;;;4.13;1.23;;;;;;;19.95;30.94;102901.38;5101484;28;20284;-54